Terminal Aerodrome Forecast
Issued by NWS

Home | Current Version | Previous Version | Graphics & Text | Print | Product List | Glossary On
Versions: 1 2 3 4 5 6 7 8 9 10 11 12 13 14 15 16 17 18 19 20 21 22 23 24
000
FTUS42 KMHX 282300 RRA
TAFOAJ
TAF
KOAJ 282350Z 2900/2924 04008KT P6SM SKC
     FM290600 00000KT 3SM BR FEW010 BKN180
     FM291200 02005KT P6SM BKN100
      AMD LTD TO CLD VIS AND WIND=

USA.gov is the U.S. government's official web portal to all federal, state and local government web resources and services.